createdAt,value
2023-04-19T00:01:14.958Z,12.18
2023-04-19T00:04:09.574Z,12.13
2023-04-19T00:06:59.956Z,13.80
2023-04-19T00:09:50.578Z,11.55
2023-04-19T00:12:42.102Z,11.68
2023-04-19T00:15:30.308Z,11.85
2023-04-19T00:18:19.715Z,11.88
2023-04-19T00:21:07.406Z,11.63
2023-04-19T00:23:55.444Z,12.18
2023-04-19T00:26:43.366Z,12.02
2023-04-19T00:29:30.786Z,12.63
2023-04-19T00:32:19.795Z,12.55
2023-04-19T00:35:09.566Z,13.48
2023-04-19T00:37:57.112Z,12.35
2023-04-19T00:40:44.578Z,11.20
2023-04-19T00:43:32.257Z,11.52
2023-04-19T00:46:22.003Z,11.13
2023-04-19T00:49:11.396Z,12.07
2023-04-19T00:52:00.568Z,11.25
2023-04-19T00:54:48.407Z,11.88
2023-04-19T00:57:36.824Z,11.60
2023-04-19T01:00:24.618Z,11.93
2023-04-19T01:03:14.236Z,11.98
2023-04-19T01:06:03.727Z,12.45
2023-04-19T01:08:52.669Z,13.07
2023-04-19T01:11:43.672Z,13.02
2023-04-19T01:14:32.260Z,12.48
2023-04-19T01:17:20.812Z,13.00
2023-04-19T01:20:09.704Z,13.38
2023-04-19T01:22:59.210Z,13.60
2023-04-19T01:25:48.340Z,14.27
2023-04-19T01:28:36.210Z,13.95
2023-04-19T01:31:24.164Z,13.68
2023-04-19T01:34:11.852Z,14.05
2023-04-19T01:36:59.339Z,13.52
2023-04-19T01:39:48.628Z,14.00
2023-04-19T01:42:36.305Z,15.13
2023-04-19T01:45:24.260Z,14.18
2023-04-19T01:48:11.880Z,15.07
2023-04-19T01:51:00.286Z,14.18
2023-04-19T01:53:52.825Z,15.40
2023-04-19T01:56:42.239Z,15.32
2023-04-19T01:59:30.856Z,14.77
2023-04-19T02:02:18.726Z,15.02
2023-04-19T02:05:07.385Z,15.48
2023-04-19T02:07:55.806Z,16.63
2023-04-19T02:10:43.548Z,16.40
2023-04-19T02:13:33.022Z,16.60
2023-04-19T02:16:21.063Z,16.92
2023-04-19T02:19:10.582Z,19.33
2023-04-19T02:21:59.791Z,19.83
2023-04-19T02:24:48.052Z,19.80
2023-04-19T02:27:35.647Z,18.48
2023-04-19T02:30:25.456Z,19.95
2023-04-19T02:33:13.463Z,20.38
2023-04-19T02:36:01.180Z,20.88
2023-04-19T02:38:48.834Z,22.15
2023-04-19T02:41:36.719Z,22.05
2023-04-19T02:44:25.787Z,21.60
2023-04-19T02:47:14.983Z,24.60
2023-04-19T02:50:02.772Z,23.25
2023-04-19T02:52:53.458Z,23.33
2023-04-19T02:55:43.522Z,23.77
2023-04-19T02:58:38.002Z,20.95
2023-04-19T03:01:27.432Z,21.58
2023-04-19T03:04:17.539Z,22.00
2023-04-19T03:07:06.404Z,21.27
2023-04-19T03:09:54.532Z,23.38
2023-04-19T03:12:42.565Z,24.10
2023-04-19T03:15:30.689Z,25.88
2023-04-19T03:18:18.728Z,28.30
2023-04-19T03:21:10.042Z,26.02
2023-04-19T03:24:14.948Z,24.77
2023-04-19T03:27:10.018Z,25.88
2023-04-19T03:29:57.409Z,28.15
2023-04-19T03:32:46.457Z,27.95
2023-04-19T03:35:34.938Z,26.45
2023-04-19T03:38:31.755Z,26.05
2023-04-19T03:41:21.254Z,27.73
2023-04-19T03:44:12.436Z,30.13
2023-04-19T03:47:03.937Z,30.05
2023-04-19T03:49:56.227Z,30.70
2023-04-19T03:52:44.769Z,30.17
2023-04-19T03:55:35.555Z,30.13
2023-04-19T03:58:24.593Z,30.23
2023-04-19T04:01:21.927Z,32.42
2023-04-19T04:04:12.185Z,30.95
2023-04-19T04:07:00.643Z,26.98
2023-04-19T04:09:48.818Z,28.20
2023-04-19T04:12:37.747Z,27.85
2023-04-19T04:15:27.488Z,27.65
2023-04-19T04:18:17.221Z,28.48
2023-04-19T04:21:06.880Z,29.55
2023-04-19T04:23:57.238Z,30.95
2023-04-19T04:26:53.576Z,27.23
2023-04-19T04:29:46.292Z,29.45
2023-04-19T04:32:36.330Z,29.58
2023-04-19T04:35:26.380Z,27.88
2023-04-19T04:38:24.761Z,28.63
2023-04-19T04:41:14.938Z,29.27
2023-04-19T04:44:12.661Z,29.15
2023-04-19T04:47:05.327Z,30.25
2023-04-19T04:49:59.713Z,28.17
2023-04-19T04:52:47.666Z,27.63
2023-04-19T04:55:44.281Z,29.98
2023-04-19T04:58:33.872Z,28.55
2023-04-19T05:01:25.420Z,27.08
2023-04-19T05:04:14.860Z,29.33
2023-04-19T05:07:03.781Z,29.65
2023-04-19T05:09:51.684Z,31.48
2023-04-19T05:12:44.825Z,30.27
2023-04-19T05:15:33.258Z,28.95
2023-04-19T05:18:21.139Z,29.48
2023-04-19T05:21:11.607Z,29.17
2023-04-19T05:24:00.673Z,30.25
2023-04-19T05:26:48.757Z,28.80
2023-04-19T05:29:37.074Z,29.38
2023-04-19T05:32:25.875Z,30.05
2023-04-19T05:35:17.983Z,29.48
2023-04-19T05:38:07.475Z,27.73
2023-04-19T05:40:56.321Z,30.05
2023-04-19T05:43:44.346Z,27.27
2023-04-19T05:46:32.255Z,28.92
2023-04-19T05:49:21.393Z,28.60
2023-04-19T05:52:22.962Z,27.27
2023-04-19T05:55:16.105Z,28.15
2023-04-19T05:58:06.490Z,26.73
2023-04-19T06:00:54.679Z,25.23
2023-04-19T06:03:45.004Z,28.65
2023-04-19T06:06:33.082Z,26.48
2023-04-19T06:09:21.682Z,26.63
2023-04-19T06:12:11.133Z,26.42
2023-04-19T06:14:58.890Z,25.80
2023-04-19T06:17:46.863Z,25.85
2023-04-19T06:20:35.226Z,27.05
2023-04-19T06:23:24.012Z,25.38
2023-04-19T06:26:11.829Z,25.38
2023-04-19T06:29:01.518Z,26.17
2023-04-19T06:31:49.988Z,26.20
2023-04-19T06:34:38.206Z,24.75
2023-04-19T06:37:25.800Z,23.67
2023-04-19T06:40:14.279Z,24.40
2023-04-19T06:43:02.234Z,25.25
2023-04-19T06:46:02.415Z,23.77
2023-04-19T06:48:49.941Z,24.58
2023-04-19T06:51:37.926Z,23.90
2023-04-19T06:54:25.930Z,23.63
2023-04-19T06:57:13.804Z,23.95
2023-04-19T07:00:01.783Z,25.55
2023-04-19T07:02:51.471Z,25.05
2023-04-19T07:05:40.420Z,25.23
2023-04-19T07:08:42.313Z,23.52
2023-04-19T07:11:37.134Z,23.92
2023-04-19T07:14:25.166Z,21.35
2023-04-19T07:17:13.711Z,24.08
2023-04-19T07:20:04.326Z,22.40
2023-04-19T07:22:52.678Z,24.45
2023-04-19T07:25:40.880Z,22.58
2023-04-19T07:28:31.500Z,23.77
2023-04-19T07:31:19.961Z,24.30
2023-04-19T07:34:07.637Z,23.00
2023-04-19T07:36:57.096Z,24.10
2023-04-19T07:39:45.312Z,22.83
2023-04-19T07:42:32.981Z,23.13
2023-04-19T07:45:21.051Z,24.60
2023-04-19T07:48:09.132Z,23.08
2023-04-19T07:50:57.352Z,22.30
2023-04-19T07:53:50.544Z,21.77
2023-04-19T07:56:38.710Z,22.80
2023-04-19T07:59:26.491Z,21.83
2023-04-19T08:02:16.794Z,21.73
2023-04-19T08:05:04.961Z,22.70
2023-04-19T08:07:54.691Z,23.02
2023-04-19T08:10:44.929Z,21.50
2023-04-19T08:13:32.761Z,21.60
2023-04-19T08:16:56.257Z,22.73
2023-04-19T08:19:28.738Z,21.15
2023-04-19T08:22:16.826Z,20.90
2023-04-19T08:25:05.029Z,20.27
2023-04-19T08:27:54.179Z,21.05
2023-04-19T08:30:42.630Z,21.05
2023-04-19T08:33:31.049Z,19.70
2023-04-19T08:36:22.369Z,20.13
2023-04-19T08:39:31.717Z,22.27
2023-04-19T08:42:33.107Z,20.00
2023-04-19T08:45:31.641Z,21.55
2023-04-19T08:48:20.414Z,20.85
2023-04-19T08:51:08.616Z,22.35
2023-04-19T08:53:59.667Z,21.83
2023-04-19T08:56:47.560Z,21.02
2023-04-19T08:59:36.243Z,21.33
2023-04-19T09:02:25.905Z,21.20
2023-04-19T09:05:14.958Z,20.38
2023-04-19T09:08:26.931Z,18.92
2023-04-19T09:11:15.248Z,19.63
2023-04-19T09:14:11.671Z,20.55
2023-04-19T09:17:16.378Z,19.08
2023-04-19T09:20:07.274Z,18.92
2023-04-19T09:23:06.797Z,18.15
2023-04-19T09:28:59.445Z,17.70
2023-04-19T09:31:59.589Z,17.13
2023-04-19T09:34:57.135Z,16.83
2023-04-19T09:40:53.231Z,16.67
2023-04-19T09:46:34.220Z,16.50
2023-04-19T09:49:37.485Z,16.48
2023-04-19T09:52:34.536Z,17.13
2023-04-19T09:55:28.142Z,16.88
2023-04-19T09:58:17.284Z,15.55
2023-04-19T10:01:14.822Z,15.15
2023-04-19T10:04:23.820Z,15.23
2023-04-19T10:10:18.749Z,17.08
2023-04-19T10:13:21.423Z,16.17
2023-04-19T10:16:18.997Z,16.90
2023-04-19T10:19:12.902Z,16.70
2023-04-19T10:22:01.260Z,17.33
2023-04-19T10:25:12.095Z,15.88
2023-04-19T10:28:00.584Z,15.43
2023-04-19T10:30:59.100Z,14.05
2023-04-19T10:33:47.112Z,16.20
2023-04-19T10:36:34.861Z,15.10
2023-04-19T10:39:41.447Z,15.27
2023-04-19T10:43:12.788Z,15.18
2023-04-19T10:46:00.336Z,15.90
2023-04-19T10:49:00.780Z,16.30
2023-04-19T10:51:55.231Z,16.23
2023-04-19T10:54:43.391Z,16.67
2023-04-19T10:58:06.781Z,16.70
2023-04-19T11:01:33.245Z,16.48
2023-04-19T11:04:27.549Z,15.35
2023-04-19T11:07:15.965Z,15.32
2023-04-19T11:10:04.203Z,15.85
2023-04-19T11:12:53.968Z,14.13
2023-04-19T11:15:45.391Z,15.27
2023-04-19T11:18:33.443Z,16.17
2023-04-19T11:21:24.170Z,16.35
2023-04-19T11:24:13.008Z,16.30
2023-04-19T11:27:01.534Z,16.95
2023-04-19T11:29:49.637Z,16.15
2023-04-19T11:32:38.338Z,16.95
2023-04-19T11:35:27.024Z,16.15
2023-04-19T11:38:17.009Z,17.98
2023-04-19T11:41:06.144Z,17.10
2023-04-19T11:43:54.189Z,16.80
2023-04-19T11:46:41.940Z,17.73
2023-04-19T11:49:31.545Z,19.08
2023-04-19T11:52:25.186Z,18.42
2023-04-19T11:55:22.440Z,18.13
2023-04-19T11:58:11.159Z,18.02
2023-04-19T12:01:04.399Z,19.20
2023-04-19T12:03:54.686Z,18.15
2023-04-19T12:06:42.728Z,20.33
2023-04-19T12:09:30.699Z,18.85
2023-04-19T12:12:34.886Z,18.55
2023-04-19T12:15:28.675Z,20.95
2023-04-19T12:18:26.414Z,22.50
2023-04-19T12:21:27.570Z,21.52
2023-04-19T12:24:18.275Z,21.05
2023-04-19T12:27:09.196Z,22.40
2023-04-19T12:30:06.069Z,24.02
2023-04-19T12:32:58.380Z,25.45
2023-04-19T12:35:48.987Z,22.73
2023-04-19T12:38:44.500Z,25.08
2023-04-19T12:44:40.919Z,19.27
2023-04-19T12:47:30.848Z,20.30
2023-04-19T12:50:45.455Z,19.70
2023-04-19T12:53:34.857Z,19.77
2023-04-19T12:56:22.946Z,19.55
2023-04-19T12:59:14.529Z,20.75
2023-04-19T13:02:05.291Z,17.92
2023-04-19T13:04:59.878Z,19.83
2023-04-19T13:07:48.939Z,17.45
2023-04-19T13:10:39.289Z,18.48
2023-04-19T13:13:39.310Z,14.63
2023-04-19T13:16:31.964Z,14.18
2023-04-19T13:19:24.533Z,15.73
2023-04-19T13:22:25.325Z,13.73
2023-04-19T13:25:26.064Z,13.00
2023-04-19T13:28:21.982Z,12.10
2023-04-19T13:31:18.540Z,14.35
2023-04-19T13:34:15.679Z,11.68
2023-04-19T13:37:05.690Z,11.88
2023-04-19T13:40:18.109Z,12.70
2023-04-19T13:43:14.020Z,11.80
2023-04-19T13:46:06.256Z,11.52
2023-04-19T13:51:55.044Z,8.93
2023-04-19T13:54:49.021Z,9.23
2023-04-19T13:57:47.300Z,9.07
2023-04-19T14:00:38.343Z,8.48
2023-04-19T14:03:31.273Z,9.45
2023-04-19T14:06:19.729Z,8.07
2023-04-19T14:09:07.510Z,7.93
2023-04-19T14:12:11.385Z,7.72
2023-04-19T14:15:06.501Z,6.45
2023-04-19T14:17:57.223Z,3.47
2023-04-19T14:20:57.554Z,2.97
2023-04-19T14:23:53.732Z,3.20
2023-04-19T14:27:03.155Z,2.42
2023-04-19T14:29:58.281Z,3.63
2023-04-19T14:32:56.604Z,3.45
2023-04-19T14:35:47.656Z,3.35
2023-04-19T14:38:46.067Z,3.45
2023-04-19T14:41:38.782Z,3.78
2023-04-19T14:44:27.682Z,5.15
2023-04-19T14:47:15.434Z,4.53
2023-04-19T14:50:05.717Z,5.95
2023-04-19T14:52:56.827Z,6.90
2023-04-19T14:55:49.371Z,5.45
2023-04-19T14:58:44.423Z,5.68
2023-04-19T15:01:44.582Z,5.70
2023-04-19T15:04:43.827Z,5.50
2023-04-19T15:07:42.093Z,4.03
2023-04-19T15:10:43.997Z,6.35
2023-04-19T15:13:41.146Z,6.93
2023-04-19T15:16:36.222Z,6.38
2023-04-19T15:19:39.636Z,4.93
2023-04-19T15:22:41.527Z,6.00
2023-04-19T15:25:33.263Z,6.88
2023-04-19T15:28:26.759Z,7.30
2023-04-19T15:31:18.556Z,9.07
2023-04-19T15:34:08.248Z,7.78
2023-04-19T15:36:57.603Z,7.80
2023-04-19T15:39:50.375Z,7.72
2023-04-19T15:42:42.316Z,8.13
2023-04-19T15:45:30.506Z,8.73
2023-04-19T15:48:21.697Z,9.23
2023-04-19T15:51:13.891Z,9.80
2023-04-19T15:54:01.656Z,7.88
2023-04-19T15:56:51.193Z,9.65
2023-04-19T15:59:47.057Z,9.07
2023-04-19T16:02:38.214Z,9.98
2023-04-19T16:05:26.692Z,9.32
2023-04-19T16:08:21.317Z,8.80
2023-04-19T16:11:09.654Z,8.85
2023-04-19T16:13:57.650Z,8.18
2023-04-19T16:16:46.987Z,5.85
2023-04-19T16:19:35.189Z,5.50
2023-04-19T16:22:23.571Z,5.90
2023-04-19T16:25:13.354Z,6.13
2023-04-19T16:28:01.864Z,6.28
2023-04-19T16:30:50.306Z,6.57
2023-04-19T16:33:39.844Z,5.63
2023-04-19T16:36:28.118Z,6.80
2023-04-19T16:39:16.182Z,6.20
2023-04-19T16:42:04.418Z,5.05
2023-04-19T16:44:52.629Z,5.95
2023-04-19T16:47:40.717Z,6.63
2023-04-19T16:50:30.803Z,6.05
2023-04-19T16:53:19.026Z,6.97
2023-04-19T16:56:07.124Z,6.00
2023-04-19T16:58:56.652Z,5.95
2023-04-19T17:01:44.528Z,5.82
2023-04-19T17:04:32.556Z,3.97
2023-04-19T17:07:21.579Z,6.70
2023-04-19T17:10:09.847Z,4.72
2023-04-19T17:12:56.857Z,5.78
2023-04-19T17:15:44.181Z,7.00
2023-04-19T17:18:31.280Z,5.88
2023-04-19T17:21:18.589Z,8.23
2023-04-19T17:24:07.096Z,6.72
2023-04-19T17:26:54.379Z,7.00
2023-04-19T17:29:41.486Z,6.10
2023-04-19T17:32:28.421Z,6.90
2023-04-19T17:35:16.177Z,6.88
2023-04-19T17:38:03.371Z,7.03
2023-04-19T17:40:51.882Z,7.35
2023-04-19T17:43:38.650Z,7.72
2023-04-19T17:46:26.140Z,7.95
2023-04-19T17:49:14.024Z,8.88
2023-04-19T17:52:01.006Z,7.20
2023-04-19T17:54:49.949Z,8.52
2023-04-19T17:57:39.153Z,7.85
2023-04-19T18:00:26.502Z,8.18
2023-04-19T18:03:13.579Z,7.20
2023-04-19T18:06:01.177Z,6.63
2023-04-19T18:08:48.606Z,8.20
2023-04-19T18:11:35.719Z,8.15
2023-04-19T18:14:24.270Z,7.72
2023-04-19T18:17:11.771Z,7.82
2023-04-19T18:19:58.906Z,7.53
2023-04-19T18:22:49.202Z,7.75
2023-04-19T18:25:37.197Z,8.05
2023-04-19T18:28:24.376Z,7.05
2023-04-19T18:31:12.966Z,7.13
2023-04-19T18:33:59.775Z,7.00
2023-04-19T18:36:46.755Z,9.00
2023-04-19T18:39:34.123Z,8.45
2023-04-19T18:42:21.373Z,7.97
2023-04-19T18:45:10.502Z,8.35
2023-04-19T18:47:58.871Z,9.45
2023-04-19T18:50:45.992Z,9.27
2023-04-19T18:53:33.156Z,8.60
2023-04-19T18:56:20.232Z,8.88
2023-04-19T18:59:07.244Z,9.02
2023-04-19T19:01:56.775Z,7.53
2023-04-19T19:04:55.866Z,9.05
2023-04-19T19:07:45.414Z,8.40
2023-04-19T19:10:58.800Z,9.18
2023-04-19T19:13:40.948Z,8.68
2023-04-19T19:16:28.166Z,8.65
2023-04-19T19:19:15.314Z,9.07
2023-04-19T19:22:07.495Z,8.80
2023-04-19T19:25:02.750Z,9.05
2023-04-19T19:28:06.396Z,7.55
2023-04-19T19:30:55.488Z,8.00
2023-04-19T19:33:50.087Z,7.22
2023-04-19T19:36:41.096Z,7.55
2023-04-19T19:39:29.932Z,8.70
2023-04-19T19:42:17.742Z,7.22
2023-04-19T19:45:05.324Z,6.80
2023-04-19T19:47:52.318Z,8.18
2023-04-19T19:51:12.962Z,8.27
2023-04-19T19:53:46.594Z,7.70
2023-04-19T19:56:35.048Z,8.50
2023-04-19T19:59:29.149Z,8.57
2023-04-19T20:02:18.814Z,7.47
2023-04-19T20:05:07.770Z,7.28
2023-04-19T20:08:08.171Z,6.95
2023-04-19T20:10:56.028Z,5.57
2023-04-19T20:13:44.820Z,6.25
2023-04-19T20:16:31.932Z,7.43
2023-04-19T20:19:19.629Z,7.18
2023-04-19T20:22:06.895Z,7.68
2023-04-19T20:24:54.073Z,9.68
2023-04-19T20:27:41.334Z,9.50
2023-04-19T20:30:30.058Z,9.85
2023-04-19T20:33:17.520Z,9.60
2023-04-19T20:36:04.543Z,9.52
2023-04-19T20:38:51.888Z,9.95
2023-04-19T20:41:39.039Z,11.40
2023-04-19T20:44:26.039Z,10.65
2023-04-19T20:47:14.384Z,11.50
2023-04-19T20:50:02.283Z,11.48
2023-04-19T20:52:50.094Z,12.88
2023-04-19T20:55:39.822Z,12.77
2023-04-19T20:58:27.943Z,12.70
2023-04-19T21:01:17.805Z,12.15
2023-04-19T21:04:09.039Z,13.63
2023-04-19T21:06:58.018Z,12.25
2023-04-19T21:09:47.331Z,12.70
2023-04-19T21:12:35.639Z,11.90
2023-04-19T21:15:23.380Z,10.88
2023-04-19T21:18:11.035Z,11.18
2023-04-19T21:21:00.402Z,13.23
2023-04-19T21:23:48.637Z,14.02
2023-04-19T21:26:36.754Z,13.77
2023-04-19T21:29:25.487Z,14.43
2023-04-19T21:32:13.220Z,16.02
2023-04-19T21:35:02.142Z,16.55
2023-04-19T21:37:53.181Z,16.92
2023-04-19T21:40:40.800Z,17.10
2023-04-19T21:43:28.704Z,14.82
2023-04-19T21:46:16.053Z,14.57
2023-04-19T21:49:03.741Z,14.57
2023-04-19T21:51:52.705Z,16.08
2023-04-19T21:54:42.342Z,16.90
2023-04-19T21:57:31.218Z,16.35
2023-04-19T22:00:20.302Z,14.63
2023-04-19T22:03:08.177Z,16.42
2023-04-19T22:05:56.572Z,19.00
2023-04-19T22:08:44.381Z,16.98
2023-04-19T22:11:34.604Z,17.85
2023-04-19T22:14:24.264Z,17.10
2023-04-19T22:17:12.960Z,17.60
2023-04-19T22:20:00.566Z,15.93
2023-04-19T22:22:48.064Z,19.40
2023-04-19T22:25:35.753Z,16.33
2023-04-19T22:28:25.190Z,18.20
2023-04-19T22:31:12.963Z,18.35
2023-04-19T22:34:00.699Z,16.40
2023-04-19T22:36:48.599Z,20.02
2023-04-19T22:39:36.787Z,17.25
2023-04-19T22:42:24.618Z,18.50
2023-04-19T22:45:13.958Z,13.63
2023-04-19T22:48:01.735Z,13.90
2023-04-19T22:50:50.634Z,13.70
2023-04-19T22:53:39.302Z,13.30
2023-04-19T22:56:27.136Z,13.48
2023-04-19T22:59:15.645Z,12.02
2023-04-19T23:02:05.329Z,13.48
2023-04-19T23:04:53.439Z,12.73
2023-04-19T23:07:43.987Z,11.93
2023-04-19T23:10:33.276Z,11.95
2023-04-19T23:13:20.984Z,13.65
2023-04-19T23:16:11.148Z,14.88
2023-04-19T23:19:01.114Z,14.98
2023-04-19T23:21:49.542Z,13.52
2023-04-19T23:24:37.530Z,16.08
2023-04-19T23:27:25.327Z,16.65
2023-04-19T23:30:13.283Z,18.15
2023-04-19T23:33:01.516Z,20.55
2023-04-19T23:35:50.361Z,20.98
2023-04-19T23:38:38.065Z,24.23
2023-04-19T23:41:25.969Z,20.60
2023-04-19T23:44:14.238Z,20.25
2023-04-19T23:47:03.597Z,25.60
2023-04-19T23:49:51.459Z,25.35
2023-04-19T23:52:40.822Z,27.45
2023-04-19T23:55:28.962Z,26.75
2023-04-19T23:58:16.535Z,28.70
